PROFILE

 METAR AND TAF INFORMATION
ADDS - METARS form results

(0043 UTC 13 November 2018)
http://aviationweather.gov/metar/data/
 
LFMP 130030Z AUTO 13008KT 7000 SCT006 17/16 Q1022
LFMP 130000Z AUTO 13009KT 7000 SCT006 SCT240 17/16 Q1021
TAF AMD LFMP 121908Z 1219/1315 13010KT 9999 FEW010 BKN045 BECMG 1300/1302 28006KT TEMPO 1302/1315 BKN010 

 AIRPORT MAP

 RUNWAY INFORMATION
Runway 13 Runway length 4150 ft Runway width 66 ft
Runway elevation 143 ft Runway displaced threshold 404 ft Runway heading 127
Runway 31 Runway length 4150 ft Runway width 66 ft
Runway elevation 131 ft Runway displaced threshold 1158 ft Runway heading 307
Runway 15 Runway length 8202 ft Runway width 148 ft
Runway elevation 130 ft Runway displaced threshold 0 ft Runway heading 148
Runway 33 Runway length 8202 ft Runway width 148 ft
Runway elevation 135 ft Runway displaced threshold 557 ft Runway heading 328

 AIRPORT FREQUENCIES
Type APP Name PERPIGNAN Frequency 120.75 MHZ
Type ATIS Name ATIS Frequency 127.875 MHZ
Type TWR Name PERPIGNAN Frequency 121.9 MHZ

 AIRPORT NEAR NAVIGATION AIDS
Type VOR-DME Name Perpignan Frequency 116250 KHZ